createdAt,value
2019-03-06T00:00:36.061Z,1.24
2019-03-06T00:01:36.102Z,1.16
2019-03-06T00:02:36.091Z,1.11
2019-03-06T00:03:36.109Z,1.05
2019-03-06T00:04:36.117Z,1.03
2019-03-06T00:05:36.116Z,1.00
2019-03-06T00:06:36.115Z,0.98
2019-03-06T00:07:36.115Z,0.96
2019-03-06T00:08:36.152Z,0.89
2019-03-06T00:09:36.136Z,0.88
2019-03-06T00:10:36.152Z,0.89
2019-03-06T00:11:36.141Z,0.84
2019-03-06T00:12:36.169Z,0.86
2019-03-06T00:13:36.167Z,0.83
2019-03-06T00:14:36.178Z,0.82
2019-03-06T00:15:36.202Z,0.80
2019-03-06T00:16:36.215Z,0.83
2019-03-06T00:17:36.201Z,0.84
2019-03-06T00:18:36.222Z,0.78
2019-03-06T00:19:36.239Z,0.74
2019-03-06T00:20:36.225Z,0.71
2019-03-06T00:21:36.242Z,0.66
2019-03-06T00:22:36.243Z,0.64
2019-03-06T00:23:36.248Z,0.69
2019-03-06T00:24:36.234Z,0.63
2019-03-06T00:25:36.255Z,0.58
2019-03-06T00:26:36.281Z,0.54
2019-03-06T00:27:36.323Z,0.53
2019-03-06T00:28:36.300Z,0.49
2019-03-06T00:29:36.300Z,0.51
2019-03-06T00:30:36.267Z,0.43
2019-03-06T00:31:36.291Z,0.43
2019-03-06T00:32:36.317Z,0.47
2019-03-06T00:33:36.325Z,0.57
2019-03-06T00:34:36.324Z,0.56
2019-03-06T00:35:36.330Z,0.51
2019-03-06T00:36:36.318Z,0.45
2019-03-06T00:37:36.357Z,0.40
2019-03-06T00:38:36.368Z,0.34
2019-03-06T00:39:36.403Z,0.33
2019-03-06T00:40:36.372Z,0.31
2019-03-06T00:41:36.379Z,0.28
2019-03-06T00:42:36.386Z,0.28
2019-03-06T00:43:36.591Z,0.24
2019-03-06T00:44:36.620Z,0.20
2019-03-06T00:45:36.817Z,0.14
2019-03-06T00:46:36.634Z,0.04
2019-03-06T00:47:36.619Z,0.24
2019-03-06T00:48:36.635Z,0.26
2019-03-06T00:49:36.663Z,0.20
2019-03-06T00:50:36.659Z,0.14
2019-03-06T00:51:36.669Z,0.19
2019-03-06T00:52:36.854Z,0.11
2019-03-06T00:53:36.665Z,0.05
2019-03-06T00:54:36.680Z,0.05
2019-03-06T00:55:36.682Z,-0.04
2019-03-06T00:56:36.703Z,-0.15
2019-03-06T00:57:36.703Z,-0.20
2019-03-06T00:58:36.711Z,-0.25
2019-03-06T00:59:36.701Z,-0.31
2019-03-06T01:00:36.714Z,-0.33
2019-03-06T01:01:36.724Z,-0.39
2019-03-06T01:02:36.732Z,-0.42
2019-03-06T01:03:36.739Z,-0.47
2019-03-06T01:04:36.753Z,-0.53
2019-03-06T01:05:36.743Z,-0.53
2019-03-06T01:06:36.764Z,-0.49
2019-03-06T01:07:36.782Z,-0.47
2019-03-06T01:08:36.807Z,-0.46
2019-03-06T01:09:36.807Z,-0.43
2019-03-06T01:10:36.793Z,-0.49
2019-03-06T01:11:36.825Z,-0.53
2019-03-06T01:12:36.820Z,-0.58
2019-03-06T01:13:36.806Z,-0.38
2019-03-06T01:14:36.808Z,-0.31
2019-03-06T01:15:36.825Z,-0.31
2019-03-06T01:16:36.839Z,-0.39
2019-03-06T01:17:36.819Z,-0.47
2019-03-06T01:18:36.874Z,-0.54
2019-03-06T01:19:36.862Z,-0.55
2019-03-06T01:20:36.859Z,-0.54
2019-03-06T01:21:36.890Z,-0.58
2019-03-06T01:22:36.893Z,-0.59
2019-03-06T01:23:36.888Z,-0.65
2019-03-06T01:24:36.908Z,-0.71
2019-03-06T01:25:36.914Z,-0.76
2019-03-06T01:26:36.929Z,-0.81
2019-03-06T01:27:36.935Z,-0.84
2019-03-06T01:28:36.925Z,-0.84
2019-03-06T01:29:36.916Z,-0.81
2019-03-06T01:30:36.929Z,-0.75
2019-03-06T01:31:36.936Z,-0.61
2019-03-06T01:32:37.151Z,-0.46
2019-03-06T01:33:37.196Z,-0.43
2019-03-06T01:34:37.196Z,-0.57
2019-03-06T01:35:37.177Z,-0.60
2019-03-06T01:36:37.180Z,-0.65
2019-03-06T01:37:37.193Z,-0.71
2019-03-06T01:38:37.196Z,-0.73
2019-03-06T01:39:37.241Z,-0.75
2019-03-06T01:40:37.222Z,-0.70
2019-03-06T01:41:37.221Z,-0.74
2019-03-06T01:42:37.226Z,-0.74
2019-03-06T01:43:37.222Z,-0.79
2019-03-06T01:44:37.263Z,-0.91
2019-03-06T01:45:37.487Z,-0.95
2019-03-06T01:46:37.279Z,-1.03
2019-03-06T01:47:37.256Z,-1.05
2019-03-06T01:48:37.265Z,-1.09
2019-03-06T01:49:37.280Z,-1.08
2019-03-06T01:50:37.306Z,-1.06
2019-03-06T01:51:37.344Z,-1.07
2019-03-06T01:52:37.304Z,-1.06
2019-03-06T01:53:37.300Z,-1.12
2019-03-06T01:54:37.351Z,-1.17
2019-03-06T01:55:37.328Z,-1.09
2019-03-06T01:56:37.347Z,-1.13
2019-03-06T01:57:37.328Z,-1.14
2019-03-06T01:58:37.573Z,-1.11
2019-03-06T01:59:37.339Z,-1.04
2019-03-06T02:00:37.350Z,-1.01
2019-03-06T02:01:37.367Z,-1.00
2019-03-06T02:02:37.409Z,-1.02
2019-03-06T02:03:38.920Z,-0.94
2019-03-06T02:04:37.404Z,-0.83
2019-03-06T02:05:37.389Z,-0.76
2019-03-06T02:06:37.398Z,-0.78
2019-03-06T02:07:37.423Z,-0.81
2019-03-06T02:08:37.434Z,-0.82
2019-03-06T02:09:37.438Z,-0.82
2019-03-06T02:10:37.415Z,-0.86
2019-03-06T02:11:37.479Z,-0.84
2019-03-06T02:12:37.429Z,-0.83
2019-03-06T02:13:37.441Z,-0.85
2019-03-06T02:14:37.471Z,-0.86
2019-03-06T02:15:37.488Z,-0.77
2019-03-06T02:16:37.470Z,-0.79
2019-03-06T02:17:37.488Z,-0.78
2019-03-06T02:18:37.521Z,-0.82
2019-03-06T02:19:37.498Z,-0.90
2019-03-06T02:20:37.509Z,-1.00
2019-03-06T02:21:37.550Z,-1.03
2019-03-06T02:22:37.553Z,-1.09
2019-03-06T02:23:37.527Z,-1.13
2019-03-06T02:24:37.338Z,-1.15
2019-03-06T02:25:37.350Z,-1.17
2019-03-06T02:26:37.405Z,-1.20
2019-03-06T02:27:37.374Z,-1.21
2019-03-06T02:28:37.348Z,-1.24
2019-03-06T02:29:37.377Z,-1.25
2019-03-06T02:30:37.353Z,-1.21
2019-03-06T02:31:37.399Z,-1.10
2019-03-06T02:32:37.399Z,-1.06
2019-03-06T02:33:37.417Z,-1.05
2019-03-06T02:34:37.408Z,-1.10
2019-03-06T02:35:37.410Z,-1.11
2019-03-06T02:36:37.424Z,-1.15
2019-03-06T02:37:37.438Z,-1.13
2019-03-06T02:38:37.500Z,-1.18
2019-03-06T02:39:37.485Z,-1.18
2019-03-06T02:40:37.425Z,-1.16
2019-03-06T02:41:37.442Z,-1.15
2019-03-06T02:42:37.452Z,-1.15
2019-03-06T02:43:37.476Z,-1.17
2019-03-06T02:44:39.951Z,-1.13
2019-03-06T02:45:37.500Z,-1.09
2019-03-06T02:46:37.509Z,-1.05
2019-03-06T02:47:37.498Z,-1.04
2019-03-06T02:48:37.512Z,-1.04
2019-03-06T02:49:37.517Z,-0.98
2019-03-06T02:50:37.530Z,-1.03
2019-03-06T02:51:37.563Z,-1.02
2019-03-06T02:52:37.550Z,-0.97
2019-03-06T02:53:37.548Z,-0.90
2019-03-06T02:54:37.343Z,-0.90
2019-03-06T02:55:37.369Z,-0.92
2019-03-06T02:56:37.378Z,-0.93
2019-03-06T02:57:37.386Z,-0.95
2019-03-06T02:58:37.371Z,-0.98
2019-03-06T02:59:37.375Z,-1.00
2019-03-06T03:00:37.408Z,-1.03
2019-03-06T03:01:37.403Z,-1.03
2019-03-06T03:02:37.417Z,-0.99
2019-03-06T03:03:37.442Z,-0.96
2019-03-06T03:04:37.422Z,-0.94
2019-03-06T03:05:37.424Z,-0.90
2019-03-06T03:06:37.460Z,-0.89
2019-03-06T03:07:37.455Z,-0.88
2019-03-06T03:08:37.447Z,-0.85
2019-03-06T03:09:37.454Z,-0.82
2019-03-06T03:10:37.492Z,-0.78
2019-03-06T03:11:37.468Z,-0.77
2019-03-06T03:12:37.469Z,-0.79
2019-03-06T03:13:37.487Z,-0.84
2019-03-06T03:14:37.544Z,-0.86
2019-03-06T03:15:37.533Z,-0.90
2019-03-06T03:16:37.532Z,-0.92
2019-03-06T03:17:37.506Z,-0.97
2019-03-06T03:18:37.547Z,-0.98
2019-03-06T03:19:37.541Z,-0.97
2019-03-06T03:20:37.603Z,-0.97
2019-03-06T03:21:37.574Z,-0.97
2019-03-06T03:22:37.559Z,-0.97
2019-03-06T03:23:37.556Z,-1.00
2019-03-06T03:24:37.401Z,-0.96
2019-03-06T03:25:37.365Z,-0.87
2019-03-06T03:26:37.473Z,-0.86
2019-03-06T03:27:37.416Z,-0.85
2019-03-06T03:28:37.407Z,-0.84
2019-03-06T03:29:37.395Z,-0.79
2019-03-06T03:30:37.436Z,-0.77
2019-03-06T03:31:37.409Z,-0.77
2019-03-06T03:32:37.444Z,-0.76
2019-03-06T03:33:37.448Z,-0.83
2019-03-06T03:34:37.445Z,-0.86
2019-03-06T03:35:37.430Z,-0.89
2019-03-06T03:36:37.461Z,-0.88
2019-03-06T03:37:37.479Z,-0.88
2019-03-06T03:38:37.476Z,-0.89
2019-03-06T03:39:37.476Z,-0.91
2019-03-06T03:40:37.519Z,-0.92
2019-03-06T03:41:37.494Z,-0.94
2019-03-06T03:42:37.477Z,-0.88
2019-03-06T03:43:37.535Z,-0.89
2019-03-06T03:44:37.514Z,-0.86
2019-03-06T03:45:37.542Z,-0.81
2019-03-06T03:46:37.553Z,-0.81
2019-03-06T03:47:37.524Z,-0.77
2019-03-06T03:48:37.565Z,-0.77
2019-03-06T03:49:37.540Z,-0.68
2019-03-06T03:50:37.784Z,-0.62
2019-03-06T03:51:37.554Z,-0.59
2019-03-06T03:52:37.567Z,-0.56
2019-03-06T03:53:37.790Z,-0.54
2019-03-06T03:54:37.787Z,-0.56
2019-03-06T03:55:37.862Z,-0.57
2019-03-06T03:56:37.820Z,-0.60
2019-03-06T03:57:37.810Z,-0.61
2019-03-06T03:58:37.831Z,-0.61
2019-03-06T03:59:37.815Z,-0.62
2019-03-06T04:00:37.827Z,-0.65
2019-03-06T04:01:37.852Z,-0.66
2019-03-06T04:02:37.851Z,-0.68
2019-03-06T04:03:37.871Z,-0.75
2019-03-06T04:04:37.874Z,-0.70
2019-03-06T04:05:37.890Z,-0.69
2019-03-06T04:06:37.920Z,-0.71
2019-03-06T04:07:37.935Z,-0.70
2019-03-06T04:08:37.904Z,-0.68
2019-03-06T04:09:37.901Z,-0.70
2019-03-06T04:10:37.902Z,-0.71
2019-03-06T04:11:37.914Z,-0.74
2019-03-06T04:12:37.927Z,-0.75
2019-03-06T04:13:38.027Z,-0.75
2019-03-06T04:14:38.030Z,-0.69
2019-03-06T04:15:37.939Z,-0.71
2019-03-06T04:16:37.967Z,-0.71
2019-03-06T04:17:37.960Z,-0.68
2019-03-06T04:18:38.008Z,-0.65
2019-03-06T04:19:37.980Z,-0.65
2019-03-06T04:20:37.981Z,-0.69
2019-03-06T04:21:37.985Z,-0.68
2019-03-06T04:22:38.010Z,-0.65
2019-03-06T04:23:38.016Z,-0.64
2019-03-06T04:24:38.002Z,-0.64
2019-03-06T04:25:38.060Z,-0.64
2019-03-06T04:26:38.041Z,-0.63
2019-03-06T04:27:38.020Z,-0.64
2019-03-06T04:28:38.057Z,-0.66
2019-03-06T04:29:38.040Z,-0.70
2019-03-06T04:30:38.067Z,-0.72
2019-03-06T04:31:38.088Z,-0.71
2019-03-06T04:32:38.069Z,-0.70
2019-03-06T04:33:38.094Z,-0.69
2019-03-06T04:34:38.095Z,-0.68
2019-03-06T04:35:38.287Z,-0.66
2019-03-06T04:36:38.087Z,-0.64
2019-03-06T04:37:38.130Z,-0.63
2019-03-06T04:38:38.116Z,-0.62
2019-03-06T04:39:38.145Z,-0.63
2019-03-06T04:40:38.128Z,-0.62
2019-03-06T04:41:38.322Z,-0.61
2019-03-06T04:42:38.378Z,-0.62
2019-03-06T04:43:38.371Z,-0.57
2019-03-06T04:44:38.377Z,-0.56
2019-03-06T04:45:38.375Z,-0.54
2019-03-06T04:46:38.389Z,-0.55
2019-03-06T04:47:38.387Z,-0.55
2019-03-06T04:48:38.392Z,-0.53
2019-03-06T04:49:38.434Z,-0.53
2019-03-06T04:50:38.410Z,-0.55
2019-03-06T04:51:38.414Z,-0.56
2019-03-06T04:52:38.433Z,-0.51
2019-03-06T04:53:38.427Z,-0.47
2019-03-06T04:54:38.440Z,-0.48
2019-03-06T04:55:38.444Z,-0.53
2019-03-06T04:56:38.455Z,-0.54
2019-03-06T04:57:38.447Z,-0.51
2019-03-06T04:58:38.426Z,-0.51
2019-03-06T04:59:38.475Z,-0.49
2019-03-06T05:00:38.459Z,-0.50
2019-03-06T05:01:38.514Z,-0.56
2019-03-06T05:02:38.486Z,-0.58
2019-03-06T05:03:38.477Z,-0.59
2019-03-06T05:04:38.509Z,-0.58
2019-03-06T05:05:38.489Z,-0.60
2019-03-06T05:06:38.541Z,-0.63
2019-03-06T05:07:38.587Z,-0.66
2019-03-06T05:08:38.559Z,-0.65
2019-03-06T05:09:38.773Z,-0.58
2019-03-06T05:10:38.540Z,-0.60
2019-03-06T05:11:38.549Z,-0.60
2019-03-06T05:12:38.571Z,-0.65
2019-03-06T05:13:38.595Z,-0.64
2019-03-06T05:14:38.597Z,-0.66
2019-03-06T05:15:38.588Z,-0.69
2019-03-06T05:16:38.579Z,-0.73
2019-03-06T05:17:38.604Z,-0.79
2019-03-06T05:18:40.368Z,-0.84
2019-03-06T05:19:38.647Z,-0.82
2019-03-06T05:20:38.635Z,-0.82
2019-03-06T05:21:38.624Z,-0.84
2019-03-06T05:22:38.633Z,-0.89
2019-03-06T05:23:38.658Z,-0.89
2019-03-06T05:24:38.667Z,-0.93
2019-03-06T05:25:38.664Z,-0.86
2019-03-06T05:26:38.673Z,-0.78
2019-03-06T05:27:38.665Z,-0.72
2019-03-06T05:28:38.675Z,-0.72
2019-03-06T05:29:38.672Z,-0.75
2019-03-06T05:30:38.702Z,-0.78
2019-03-06T05:31:38.722Z,-0.77
2019-03-06T05:32:38.715Z,-0.76
2019-03-06T05:33:38.705Z,-0.74
2019-03-06T05:34:38.732Z,-0.75
2019-03-06T05:35:38.719Z,-0.74
2019-03-06T05:36:38.771Z,-0.71
2019-03-06T05:37:38.763Z,-0.68
2019-03-06T05:38:38.746Z,-0.68
2019-03-06T05:39:38.769Z,-0.72
2019-03-06T05:40:38.776Z,-0.76
2019-03-06T05:41:38.772Z,-0.77
2019-03-06T05:42:38.583Z,-0.79
2019-03-06T05:43:38.614Z,-0.83
2019-03-06T05:44:38.600Z,-0.82
2019-03-06T05:45:38.587Z,-0.84
2019-03-06T05:46:38.615Z,-0.85
2019-03-06T05:47:38.649Z,-0.88
2019-03-06T05:48:38.608Z,-0.88
2019-03-06T05:49:38.636Z,-0.86
2019-03-06T05:50:38.641Z,-0.83
2019-03-06T05:51:38.650Z,-0.80
2019-03-06T05:52:38.657Z,-0.77
2019-03-06T05:53:38.645Z,-0.75
2019-03-06T05:54:38.676Z,-0.72
2019-03-06T05:55:38.719Z,-0.72
2019-03-06T05:56:38.727Z,-0.68
2019-03-06T05:57:38.694Z,-0.66
2019-03-06T05:58:38.724Z,-0.65
2019-03-06T05:59:38.700Z,-0.67
2019-03-06T06:00:38.712Z,-0.66
2019-03-06T06:01:38.733Z,-0.67
2019-03-06T06:02:38.723Z,-0.66
2019-03-06T06:03:38.729Z,-0.64
2019-03-06T06:04:38.742Z,-0.64
2019-03-06T06:05:38.750Z,-0.63
2019-03-06T06:06:38.792Z,-0.62
2019-03-06T06:07:38.780Z,-0.63
2019-03-06T06:08:38.770Z,-0.63
2019-03-06T06:09:38.785Z,-0.60
2019-03-06T06:10:38.804Z,-0.57
2019-03-06T06:11:38.787Z,-0.57
2019-03-06T06:12:38.610Z,-0.58
2019-03-06T06:13:38.645Z,-0.58
2019-03-06T06:14:39.226Z,-0.60
2019-03-06T06:15:38.620Z,-0.59
2019-03-06T06:16:38.659Z,-0.55
2019-03-06T06:17:38.625Z,-0.56
2019-03-06T06:18:38.645Z,-0.59
2019-03-06T06:19:38.662Z,-0.57
2019-03-06T06:20:38.665Z,-0.51
2019-03-06T06:21:38.646Z,-0.48
2019-03-06T06:22:38.655Z,-0.44
2019-03-06T06:23:38.678Z,-0.41
2019-03-06T06:24:38.715Z,-0.38
2019-03-06T06:25:38.706Z,-0.34
2019-03-06T06:26:38.683Z,-0.28
2019-03-06T06:27:38.718Z,-0.20
2019-03-06T06:28:38.766Z,-0.21
2019-03-06T06:29:38.711Z,-0.25
2019-03-06T06:30:38.733Z,-0.22
2019-03-06T06:31:38.737Z,-0.15
2019-03-06T06:32:38.744Z,-0.08
2019-03-06T06:33:38.743Z,0.01
2019-03-06T06:34:38.787Z,0.16
2019-03-06T06:35:38.779Z,0.29
2019-03-06T06:36:38.792Z,0.43
2019-03-06T06:37:38.777Z,0.57
2019-03-06T06:38:38.784Z,0.71
2019-03-06T06:39:38.793Z,0.71
2019-03-06T06:40:38.812Z,0.69
2019-03-06T06:41:39.040Z,0.76
2019-03-06T06:42:38.624Z,0.84
2019-03-06T06:43:38.600Z,0.85
2019-03-06T06:44:38.643Z,0.89
2019-03-06T06:45:38.639Z,1.02
2019-03-06T06:46:38.651Z,1.17
2019-03-06T06:47:38.660Z,1.30
2019-03-06T06:48:38.701Z,1.42
2019-03-06T06:49:38.672Z,1.49
2019-03-06T06:50:38.695Z,1.54
2019-03-06T06:51:38.686Z,1.59
2019-03-06T06:52:38.687Z,1.69
2019-03-06T06:53:38.701Z,1.81
2019-03-06T06:54:38.703Z,1.87
2019-03-06T06:55:38.717Z,1.96
2019-03-06T06:56:38.701Z,2.07
2019-03-06T06:57:38.706Z,2.22
2019-03-06T06:58:38.710Z,2.35
2019-03-06T06:59:38.748Z,2.55
2019-03-06T07:00:38.758Z,2.82
2019-03-06T07:01:38.744Z,2.86
2019-03-06T07:02:39.575Z,2.68
2019-03-06T07:03:38.790Z,2.78
2019-03-06T07:04:38.814Z,3.24
2019-03-06T07:05:38.817Z,4.00
2019-03-06T07:06:38.780Z,4.53
2019-03-06T07:07:38.793Z,4.63
2019-03-06T07:08:38.790Z,4.50
2019-03-06T07:09:38.801Z,4.54
2019-03-06T07:10:38.840Z,4.76
2019-03-06T07:11:39.057Z,5.03
2019-03-06T07:12:38.804Z,5.14
2019-03-06T07:13:38.660Z,5.16
2019-03-06T07:14:38.646Z,5.71
2019-03-06T07:15:38.662Z,6.04
2019-03-06T07:16:38.673Z,5.89
2019-03-06T07:17:38.681Z,5.86
2019-03-06T07:18:38.679Z,6.32
2019-03-06T07:19:38.717Z,6.89
2019-03-06T07:20:38.883Z,6.88
2019-03-06T07:21:38.892Z,7.18
2019-03-06T07:22:38.932Z,6.53
2019-03-06T07:23:38.915Z,7.03
2019-03-06T07:24:38.901Z,7.42
2019-03-06T07:25:38.945Z,7.38
2019-03-06T07:26:38.928Z,6.74
2019-03-06T07:27:38.953Z,6.14
2019-03-06T07:28:38.952Z,4.91
2019-03-06T07:29:38.945Z,6.21
2019-03-06T07:30:38.964Z,7.21
2019-03-06T07:31:38.993Z,7.64
2019-03-06T07:32:38.974Z,8.33
2019-03-06T07:33:38.991Z,8.57
2019-03-06T07:34:39.008Z,8.35
2019-03-06T07:35:38.989Z,8.38
2019-03-06T07:36:39.001Z,8.90
2019-03-06T07:37:39.014Z,9.35
2019-03-06T07:38:39.021Z,9.28
2019-03-06T07:39:39.052Z,9.39
2019-03-06T07:40:39.060Z,10.09
2019-03-06T07:41:39.033Z,9.71
2019-03-06T07:42:39.040Z,9.79
2019-03-06T07:43:39.075Z,7.89
2019-03-06T07:44:39.089Z,8.61
2019-03-06T07:45:39.074Z,8.95
2019-03-06T07:46:39.105Z,9.28
2019-03-06T07:47:39.083Z,10.21
2019-03-06T07:48:39.112Z,10.76
2019-03-06T07:49:44.967Z,10.98
2019-03-06T07:50:39.100Z,11.11
2019-03-06T07:51:39.130Z,8.69
2019-03-06T07:52:39.139Z,6.57
2019-03-06T07:53:39.128Z,6.97
2019-03-06T07:54:39.134Z,7.34
2019-03-06T07:55:39.148Z,7.44
2019-03-06T07:56:39.151Z,7.95
2019-03-06T07:57:39.190Z,7.90
2019-03-06T07:58:39.197Z,8.23
2019-03-06T07:59:39.187Z,8.14
2019-03-06T08:00:39.183Z,8.50
2019-03-06T08:01:39.202Z,9.18
2019-03-06T08:02:39.205Z,9.42
2019-03-06T08:03:39.227Z,9.42
2019-03-06T08:04:39.240Z,8.62
2019-03-06T08:05:39.223Z,8.42
2019-03-06T08:06:39.228Z,8.67
2019-03-06T08:07:39.265Z,9.37
2019-03-06T08:08:39.224Z,8.75
2019-03-06T08:09:39.056Z,8.89
2019-03-06T08:10:39.069Z,8.91
2019-03-06T08:11:39.070Z,9.69
2019-03-06T08:12:39.064Z,10.24
2019-03-06T08:13:39.060Z,10.96
2019-03-06T08:14:39.073Z,11.54
2019-03-06T08:15:39.116Z,10.08
2019-03-06T08:16:39.136Z,10.75
2019-03-06T08:17:39.118Z,9.37
2019-03-06T08:18:39.134Z,9.38
2019-03-06T08:19:39.114Z,9.92
2019-03-06T08:20:39.119Z,9.46
2019-03-06T08:21:39.144Z,9.52
2019-03-06T08:22:39.147Z,9.92
2019-03-06T08:23:39.147Z,10.01
2019-03-06T08:24:39.166Z,9.49
2019-03-06T08:25:39.166Z,9.51
2019-03-06T08:26:39.164Z,9.56
2019-03-06T08:27:39.196Z,9.81
2019-03-06T08:28:39.188Z,9.93
2019-03-06T08:29:39.180Z,10.07
2019-03-06T08:30:39.181Z,10.09
2019-03-06T08:31:39.225Z,9.05
2019-03-06T08:32:39.214Z,9.46
2019-03-06T08:33:39.249Z,9.72
2019-03-06T08:34:39.242Z,9.03
2019-03-06T08:35:39.252Z,9.26
2019-03-06T08:36:39.228Z,10.01
2019-03-06T08:37:39.224Z,10.48
2019-03-06T08:38:39.242Z,11.38
2019-03-06T08:39:39.090Z,10.66
2019-03-06T08:40:39.090Z,10.81
2019-03-06T08:41:39.061Z,11.07
2019-03-06T08:42:39.094Z,10.32
2019-03-06T08:43:39.100Z,10.86
2019-03-06T08:44:39.080Z,10.99
2019-03-06T08:45:39.115Z,11.39
2019-03-06T08:46:39.113Z,11.54
2019-03-06T08:47:39.098Z,11.48
2019-03-06T08:48:39.113Z,11.56
2019-03-06T08:49:39.153Z,11.88
2019-03-06T08:50:39.125Z,11.70
2019-03-06T08:51:39.160Z,11.67
2019-03-06T08:52:39.167Z,11.98
2019-03-06T08:53:39.148Z,11.73
2019-03-06T08:54:39.148Z,10.14
2019-03-06T08:55:39.186Z,10.98
2019-03-06T08:56:39.173Z,10.96
2019-03-06T08:57:39.198Z,10.64
2019-03-06T08:58:39.194Z,10.82
2019-03-06T08:59:39.208Z,10.35
2019-03-06T09:00:39.235Z,10.69
2019-03-06T09:01:39.223Z,10.92
2019-03-06T09:02:39.210Z,11.23
2019-03-06T09:03:39.248Z,10.09
2019-03-06T09:04:39.278Z,10.91
2019-03-06T09:05:39.248Z,11.35
2019-03-06T09:06:39.248Z,11.23
2019-03-06T09:07:39.285Z,11.09
2019-03-06T09:08:39.258Z,10.72
2019-03-06T09:09:39.309Z,10.99
2019-03-06T09:10:39.088Z,11.78
2019-03-06T09:11:39.588Z,12.49
2019-03-06T09:12:39.076Z,12.73
2019-03-06T09:13:39.118Z,13.12
2019-03-06T09:14:39.093Z,13.48
2019-03-06T09:15:39.145Z,12.81
2019-03-06T09:16:39.187Z,12.50
2019-03-06T09:17:39.104Z,13.00
2019-03-06T09:18:39.130Z,13.44
2019-03-06T09:19:39.151Z,13.27
2019-03-06T09:20:41.029Z,13.90
2019-03-06T09:21:39.182Z,12.76
2019-03-06T09:22:39.204Z,11.14
2019-03-06T09:23:39.163Z,11.53
2019-03-06T09:24:39.163Z,12.14
2019-03-06T09:25:39.199Z,11.78
2019-03-06T09:26:39.181Z,12.63
2019-03-06T09:27:39.242Z,12.69
2019-03-06T09:28:39.228Z,12.70
2019-03-06T09:29:39.218Z,12.58
2019-03-06T09:30:39.279Z,12.50
2019-03-06T09:31:39.299Z,12.65
2019-03-06T09:32:39.289Z,12.51
2019-03-06T09:33:39.285Z,13.24
2019-03-06T09:34:39.318Z,13.52
2019-03-06T09:35:39.282Z,14.17
2019-03-06T09:36:39.299Z,13.04
2019-03-06T09:37:39.283Z,13.42
2019-03-06T09:38:39.294Z,12.16
2019-03-06T09:39:39.305Z,12.37
2019-03-06T09:40:39.318Z,11.26
2019-03-06T09:41:39.303Z,12.43
2019-03-06T09:42:39.127Z,12.61
2019-03-06T09:43:39.119Z,12.48
2019-03-06T09:44:39.117Z,12.25
2019-03-06T09:45:39.170Z,12.48
2019-03-06T09:46:39.158Z,12.64
2019-03-06T09:47:39.136Z,13.63
2019-03-06T09:48:39.161Z,13.76
2019-03-06T09:49:39.166Z,12.30
2019-03-06T09:50:39.159Z,12.88
2019-03-06T09:51:39.198Z,13.45
2019-03-06T09:52:39.216Z,13.88
2019-03-06T09:53:39.176Z,14.19
2019-03-06T09:54:39.197Z,13.21
2019-03-06T09:55:39.220Z,13.68
2019-03-06T09:56:39.206Z,13.50
2019-03-06T09:57:39.243Z,12.94
2019-03-06T09:58:39.251Z,12.99
2019-03-06T09:59:39.241Z,13.70
2019-03-06T10:00:39.212Z,13.56
2019-03-06T10:01:39.235Z,14.12
2019-03-06T10:02:39.248Z,14.04
2019-03-06T10:03:39.299Z,14.63
2019-03-06T10:04:39.301Z,14.76
2019-03-06T10:05:39.282Z,14.60
2019-03-06T10:06:39.301Z,14.42
2019-03-06T10:07:39.285Z,14.76
2019-03-06T10:08:39.307Z,14.51
2019-03-06T10:09:39.290Z,13.16
2019-03-06T10:10:45.982Z,13.21
2019-03-06T10:11:39.334Z,13.81
2019-03-06T10:12:47.202Z,13.93
2019-03-06T10:13:42.102Z,13.41
2019-03-06T10:14:39.159Z,13.08
2019-03-06T10:15:39.154Z,11.73
2019-03-06T10:16:39.167Z,12.74
2019-03-06T10:17:39.168Z,13.33
2019-03-06T10:18:39.167Z,13.80
2019-03-06T10:19:39.188Z,13.23
2019-03-06T10:20:39.181Z,13.31
2019-03-06T10:21:39.179Z,13.31
2019-03-06T10:22:39.226Z,13.06
2019-03-06T10:23:39.196Z,13.81
2019-03-06T10:24:39.226Z,14.29
2019-03-06T10:25:39.227Z,14.36
2019-03-06T10:26:39.230Z,12.85
2019-03-06T10:27:39.265Z,11.48
2019-03-06T10:28:39.265Z,12.50
2019-03-06T10:29:39.262Z,11.30
2019-03-06T10:30:39.225Z,12.90
2019-03-06T10:31:39.259Z,13.01
2019-03-06T10:32:39.262Z,11.84
2019-03-06T10:33:39.311Z,12.30
2019-03-06T10:34:39.292Z,12.80
2019-03-06T10:35:39.283Z,12.35
2019-03-06T10:36:39.293Z,11.96
2019-03-06T10:37:39.318Z,13.08
2019-03-06T10:38:39.318Z,12.65
2019-03-06T10:39:39.349Z,12.33
2019-03-06T10:40:39.374Z,12.93
2019-03-06T10:41:39.330Z,12.31
2019-03-06T10:42:39.349Z,13.86
2019-03-06T10:43:39.348Z,13.37
2019-03-06T10:44:39.347Z,13.04
2019-03-06T10:45:42.019Z,13.79
2019-03-06T10:46:39.215Z,14.64
2019-03-06T10:47:39.164Z,15.52
2019-03-06T10:48:39.197Z,16.12
2019-03-06T10:49:39.212Z,15.73
2019-03-06T10:50:39.201Z,16.63
2019-03-06T10:51:39.204Z,16.21
2019-03-06T10:52:39.227Z,15.99
2019-03-06T10:53:41.544Z,16.12
2019-03-06T10:54:44.611Z,13.80
2019-03-06T10:55:39.250Z,12.63
2019-03-06T10:56:39.247Z,12.68
2019-03-06T10:57:39.271Z,13.18
2019-03-06T10:58:39.238Z,14.00
2019-03-06T10:59:39.239Z,14.85
2019-03-06T11:00:39.286Z,15.73
2019-03-06T11:01:39.283Z,15.11
2019-03-06T11:02:39.290Z,13.99
2019-03-06T11:03:39.343Z,14.75
2019-03-06T11:04:39.325Z,14.88
2019-03-06T11:05:39.401Z,15.29
2019-03-06T11:06:39.318Z,15.97
2019-03-06T11:07:39.322Z,16.62
2019-03-06T11:08:39.380Z,17.00
2019-03-06T11:09:39.430Z,17.89
2019-03-06T11:10:39.368Z,16.19
2019-03-06T11:11:39.346Z,16.67
2019-03-06T11:12:39.381Z,15.77
2019-03-06T11:13:39.370Z,14.77
2019-03-06T11:14:39.373Z,14.56
2019-03-06T11:15:39.394Z,13.37
2019-03-06T11:16:39.198Z,13.78
2019-03-06T11:17:39.190Z,14.16
2019-03-06T11:18:39.176Z,14.35
2019-03-06T11:19:39.390Z,14.29
2019-03-06T11:20:40.670Z,13.30
2019-03-06T11:21:39.225Z,13.37
2019-03-06T11:22:39.230Z,12.01
2019-03-06T11:23:39.216Z,12.49
2019-03-06T11:24:39.248Z,12.32
2019-03-06T11:25:39.243Z,13.39
2019-03-06T11:26:39.242Z,13.32
2019-03-06T11:27:39.283Z,12.98
2019-03-06T11:28:39.278Z,12.87
2019-03-06T11:29:39.259Z,13.04
2019-03-06T11:30:39.270Z,13.90
2019-03-06T11:31:39.317Z,13.35
2019-03-06T11:32:39.314Z,13.80
2019-03-06T11:33:39.319Z,13.17
2019-03-06T11:34:39.346Z,13.29
2019-03-06T11:35:39.355Z,12.68
2019-03-06T11:36:39.328Z,12.69
2019-03-06T11:37:39.345Z,13.10
2019-03-06T11:38:39.343Z,13.42
2019-03-06T11:39:39.381Z,13.80
2019-03-06T11:40:39.353Z,13.02
2019-03-06T11:41:39.349Z,13.03
2019-03-06T11:42:39.387Z,12.55
2019-03-06T11:43:39.354Z,13.20
2019-03-06T11:44:39.371Z,13.08
2019-03-06T11:45:39.400Z,13.01
2019-03-06T11:46:39.414Z,13.03
2019-03-06T11:47:39.418Z,13.01
2019-03-06T11:48:39.203Z,13.61
2019-03-06T11:49:39.206Z,13.37
2019-03-06T11:50:41.163Z,12.95
2019-03-06T11:51:39.258Z,12.58
2019-03-06T11:52:39.246Z,12.77
2019-03-06T11:53:39.251Z,13.35
2019-03-06T11:54:39.244Z,13.74
2019-03-06T11:55:39.259Z,12.87
2019-03-06T11:56:39.256Z,12.96
2019-03-06T11:57:39.279Z,13.68
2019-03-06T11:58:39.280Z,12.48
2019-03-06T11:59:39.304Z,12.92
2019-03-06T12:00:39.318Z,13.95
2019-03-06T12:01:47.607Z,14.64
2019-03-06T12:02:39.332Z,14.17
2019-03-06T12:03:39.319Z,15.18
2019-03-06T12:04:39.324Z,16.28
2019-03-06T12:05:39.323Z,14.34
2019-03-06T12:06:39.333Z,13.25
2019-03-06T12:07:39.356Z,13.00
2019-03-06T12:08:45.654Z,13.78
2019-03-06T12:09:39.382Z,13.44
2019-03-06T12:10:39.405Z,13.87
2019-03-06T12:11:39.384Z,14.61
2019-03-06T12:12:39.389Z,13.66
2019-03-06T12:13:39.396Z,13.68
2019-03-06T12:14:39.382Z,14.23
2019-03-06T12:15:39.404Z,13.78
2019-03-06T12:16:42.054Z,13.09
2019-03-06T12:17:39.425Z,14.18
2019-03-06T12:18:39.450Z,13.44
2019-03-06T12:19:39.452Z,13.51
2019-03-06T12:20:39.433Z,13.97
2019-03-06T12:21:39.251Z,13.95
2019-03-06T12:22:39.291Z,13.79
2019-03-06T12:23:39.355Z,14.32
2019-03-06T12:24:39.258Z,14.73
2019-03-06T12:25:39.273Z,14.80
2019-03-06T12:26:39.267Z,14.51
2019-03-06T12:27:39.352Z,13.95
2019-03-06T12:28:39.318Z,13.68
2019-03-06T12:29:39.285Z,14.12
2019-03-06T12:30:39.326Z,14.86
2019-03-06T12:31:39.307Z,15.32
2019-03-06T12:32:39.312Z,15.35
2019-03-06T12:33:39.350Z,16.09
2019-03-06T12:34:39.349Z,15.35
2019-03-06T12:35:39.345Z,15.18
2019-03-06T12:36:39.338Z,15.67
2019-03-06T12:37:46.681Z,15.78
2019-03-06T12:38:40.249Z,16.15
2019-03-06T12:39:39.400Z,14.77
2019-03-06T12:40:39.411Z,14.50
2019-03-06T12:41:39.384Z,15.19
2019-03-06T12:42:39.395Z,15.12
2019-03-06T12:43:39.423Z,16.07
2019-03-06T12:44:39.421Z,16.36
2019-03-06T12:45:39.448Z,15.00
2019-03-06T12:46:39.473Z,15.95
2019-03-06T12:47:39.427Z,15.96
2019-03-06T12:48:39.433Z,15.62
2019-03-06T12:49:39.458Z,15.26
2019-03-06T12:50:39.465Z,13.96
2019-03-06T12:51:39.499Z,13.96
2019-03-06T12:52:39.276Z,14.72
2019-03-06T12:53:39.465Z,14.61
2019-03-06T12:54:39.504Z,13.53
2019-03-06T12:55:39.485Z,12.86
2019-03-06T12:56:39.510Z,14.26
2019-03-06T12:57:39.549Z,15.26
2019-03-06T12:58:39.550Z,16.55